createdAt,value
2023-03-21T00:01:04.730Z,100778.84
2023-03-21T00:03:34.888Z,100777.97
2023-03-21T00:06:16.577Z,100771.78
2023-03-21T00:08:44.603Z,100777.13
2023-03-21T00:11:12.944Z,100776.28
2023-03-21T00:13:43.595Z,100779.09
2023-03-21T00:16:21.540Z,100773.72
2023-03-21T00:18:57.286Z,100775.69
2023-03-21T00:24:15.403Z,100770.22
2023-03-21T00:26:46.138Z,100765.84
2023-03-21T00:29:13.130Z,100765.69
2023-03-21T00:31:49.903Z,100761.19
2023-03-21T00:34:20.348Z,100762.03
2023-03-21T00:36:53.878Z,100757.66
2023-03-21T00:39:20.817Z,100758.53
2023-03-21T00:41:50.678Z,100753.16
2023-03-21T00:44:17.542Z,100754.00
2023-03-21T00:47:00.876Z,100753.84
2023-03-21T00:49:34.000Z,100743.00
2023-03-21T00:52:15.114Z,100750.31
2023-03-21T00:54:48.933Z,100745.69
2023-03-21T00:57:16.147Z,100744.84
2023-03-21T00:59:57.577Z,100742.28
2023-03-21T01:02:26.875Z,100750.94
2023-03-21T01:04:54.429Z,100744.84
2023-03-21T01:07:21.800Z,100745.69
2023-03-21T01:09:53.024Z,100740.31
2023-03-21T01:12:19.875Z,100742.88
2023-03-21T01:14:47.058Z,100745.56
2023-03-21T01:17:13.924Z,100741.06
2023-03-21T01:19:52.296Z,100750.78
2023-03-21T01:22:21.218Z,100745.41
2023-03-21T01:24:56.961Z,100737.38
2023-03-21T01:27:27.205Z,100742.06
2023-03-21T01:29:53.986Z,100738.38
2023-03-21T01:32:23.396Z,100735.56
2023-03-21T01:34:50.350Z,100732.91
2023-03-21T01:37:19.070Z,100732.91
2023-03-21T01:39:47.863Z,100724.84
2023-03-21T01:42:15.415Z,100728.25
2023-03-21T01:45:03.309Z,100726.41
2023-03-21T01:47:30.059Z,100727.38
2023-03-21T01:50:03.716Z,100724.59
2023-03-21T01:52:44.703Z,100725.56
2023-03-21T01:55:15.381Z,100721.16
2023-03-21T01:58:06.754Z,100724.59
2023-03-21T02:00:38.020Z,100722.91
2023-03-21T02:03:16.864Z,100723.75
2023-03-21T02:06:08.413Z,100721.06
2023-03-21T02:08:39.545Z,100718.38
2023-03-21T02:11:11.294Z,100719.22
2023-03-21T02:13:38.192Z,100719.09
2023-03-21T02:16:32.410Z,100717.25
2023-03-21T02:19:53.396Z,100718.09
2023-03-21T02:23:06.694Z,100708.50
2023-03-21T02:26:10.463Z,100709.22
2023-03-21T02:28:57.779Z,100711.06
2023-03-21T02:32:20.509Z,100703.84
2023-03-21T02:35:58.603Z,100700.19
2023-03-21T02:39:00.394Z,100704.69
2023-03-21T02:41:55.064Z,100700.06
2023-03-21T02:44:58.190Z,100693.97
2023-03-21T02:47:42.652Z,100693.13
2023-03-21T02:50:27.083Z,100689.34
2023-03-21T02:53:06.882Z,100691.06
2023-03-21T02:55:38.501Z,100692.00
2023-03-21T02:58:16.493Z,100689.22
2023-03-21T03:00:47.124Z,100694.69
2023-03-21T03:03:27.987Z,100686.78
2023-03-21T03:06:07.778Z,100685.19
2023-03-21T03:09:02.908Z,100690.31
2023-03-21T03:11:47.404Z,100689.34
2023-03-21T03:15:03.145Z,100685.81
2023-03-21T03:18:13.467Z,100683.97
2023-03-21T03:21:23.000Z,100679.59
2023-03-21T03:24:03.549Z,100674.97
2023-03-21T03:26:43.511Z,100674.22
2023-03-21T03:29:18.456Z,100675.19
2023-03-21T03:32:17.451Z,100669.84
2023-03-21T03:34:56.274Z,100655.59
2023-03-21T03:37:37.761Z,100675.19
2023-03-21T03:40:25.478Z,100670.84
2023-03-21T03:43:00.630Z,100660.09
2023-03-21T03:45:43.582Z,100668.16
2023-03-21T03:48:29.187Z,100662.91
2023-03-21T03:51:21.067Z,100667.44
2023-03-21T03:54:00.720Z,100667.16
2023-03-21T03:56:29.390Z,100668.16
2023-03-21T03:58:57.898Z,100665.47
2023-03-21T04:01:25.215Z,100659.94
2023-03-21T04:04:01.024Z,100662.25
2023-03-21T04:06:38.565Z,100657.88
2023-03-21T04:09:19.287Z,100661.16
2023-03-21T04:11:58.107Z,100652.25
2023-03-21T04:14:35.594Z,100654.91
2023-03-21T04:17:08.956Z,100653.13
2023-03-21T04:19:36.083Z,100659.19
2023-03-21T04:22:09.152Z,100661.00
2023-03-21T04:24:37.392Z,100661.88
2023-03-21T04:27:06.134Z,100658.31
2023-03-21T04:29:33.516Z,100660.16
2023-03-21T04:32:01.378Z,100663.56
2023-03-21T04:34:31.493Z,100655.78
2023-03-21T04:37:00.178Z,100655.53
2023-03-21T04:39:27.090Z,100650.03
2023-03-21T04:41:56.971Z,100654.28
2023-03-21T04:44:23.582Z,100656.13
2023-03-21T04:46:50.574Z,100652.56
2023-03-21T04:49:18.893Z,100655.25
2023-03-21T04:51:45.656Z,100657.22
2023-03-21T04:56:44.680Z,100651.84
2023-03-21T04:59:16.646Z,100654.28
2023-03-21T05:01:43.905Z,100647.19
2023-03-21T05:04:16.620Z,100653.84
2023-03-21T05:06:45.960Z,100652.72
2023-03-21T05:09:14.186Z,100643.69
2023-03-21T05:11:44.397Z,100653.44
2023-03-21T05:14:31.652Z,100641.72
2023-03-21T05:17:05.487Z,100646.25
2023-03-21T05:19:35.777Z,100648.75
2023-03-21T05:22:10.604Z,100648.91
2023-03-21T05:24:41.925Z,100647.09
2023-03-21T05:27:08.776Z,100644.28
2023-03-21T05:29:35.508Z,100648.31
2023-03-21T05:32:02.916Z,100646.25
2023-03-21T05:34:35.869Z,100646.81
2023-03-21T05:37:05.554Z,100642.72
2023-03-21T05:39:35.373Z,100639.88
2023-03-21T05:42:18.345Z,100631.72
2023-03-21T05:44:46.287Z,100636.78
2023-03-21T05:47:18.849Z,100641.19
2023-03-21T05:49:47.154Z,100642.03
2023-03-21T05:52:14.740Z,100639.25
2023-03-21T05:54:44.486Z,100637.28
2023-03-21T05:57:12.043Z,100633.31
2023-03-21T05:59:38.852Z,100631.34
2023-03-21T06:02:06.004Z,100640.97
2023-03-21T06:04:32.666Z,100635.88
2023-03-21T06:06:59.527Z,100634.75
2023-03-21T06:09:26.618Z,100635.34
2023-03-21T06:11:57.039Z,100631.84
2023-03-21T06:14:24.716Z,100623.38
2023-03-21T06:16:54.531Z,100637.97
2023-03-21T06:19:21.855Z,100637.97
2023-03-21T06:21:54.945Z,100636.97
2023-03-21T07:13:05.803Z,100620.47
2023-03-21T07:15:34.347Z,100633.22
2023-03-21T07:18:01.144Z,100626.72
2023-03-21T07:34:00.826Z,100634.84
2023-03-21T07:52:44.076Z,100602.03
2023-03-21T07:55:12.272Z,100608.25
2023-03-21T07:57:40.466Z,100610.38
2023-03-21T08:00:08.716Z,100611.94
2023-03-21T08:02:37.350Z,100604.16
2023-03-21T08:05:04.725Z,100610.47
2023-03-21T08:07:32.481Z,100609.34
2023-03-21T08:09:59.770Z,100614.06
2023-03-21T08:12:26.550Z,100614.19
2023-03-21T08:14:53.207Z,100615.19
2023-03-21T08:17:19.833Z,100614.78
2023-03-21T08:19:46.589Z,100614.19
2023-03-21T08:22:16.798Z,100614.75
2023-03-21T08:24:43.567Z,100611.94
2023-03-21T08:27:10.305Z,100620.97
2023-03-21T08:29:43.166Z,100609.50
2023-03-21T08:32:09.981Z,100616.59
2023-03-21T08:34:37.180Z,100612.38
2023-03-21T08:37:04.301Z,100616.75
2023-03-21T08:39:33.416Z,100609.38
2023-03-21T08:42:02.572Z,100611.94
2023-03-21T08:44:29.268Z,100608.41
2023-03-21T08:46:58.976Z,100612.38
2023-03-21T08:49:26.973Z,100615.47
2023-03-21T08:51:59.252Z,100613.47
2023-03-21T08:54:25.919Z,100616.88
2023-03-21T08:56:52.847Z,100608.38
2023-03-21T08:59:21.101Z,100611.38
2023-03-21T09:01:47.841Z,100615.31
2023-03-21T09:04:15.729Z,100613.91
2023-03-21T09:06:45.588Z,100607.97
2023-03-21T09:09:12.688Z,100615.19
2023-03-21T09:11:41.557Z,100608.53
2023-03-21T09:14:11.817Z,100612.50
2023-03-21T09:16:38.953Z,100610.38
2023-03-21T09:19:09.050Z,100609.53
2023-03-21T09:21:36.767Z,100607.94
2023-03-21T09:24:05.683Z,100606.28
2023-03-21T09:26:33.624Z,100606.28
2023-03-21T09:29:01.132Z,100608.22
2023-03-21T09:31:28.675Z,100603.13
2023-03-21T09:34:00.590Z,100608.78
2023-03-21T09:36:27.570Z,100606.66
2023-03-21T09:38:58.097Z,100601.38
2023-03-21T09:41:59.294Z,100602.94
2023-03-21T09:44:59.748Z,100605.38
2023-03-21T09:47:37.639Z,100596.03
2023-03-21T09:50:21.905Z,100594.88
2023-03-21T09:53:19.182Z,100589.34
2023-03-21T09:55:47.128Z,100592.88
2023-03-21T09:59:02.466Z,100588.91
2023-03-21T10:01:41.961Z,100588.72
2023-03-21T10:04:24.631Z,100585.19
2023-03-21T10:07:06.549Z,100583.03
2023-03-21T10:09:34.822Z,100592.25
2023-03-21T10:12:16.382Z,100587.44
2023-03-21T10:14:51.634Z,100582.47
2023-03-21T10:17:34.277Z,100586.44
2023-03-21T10:20:27.544Z,100580.31
2023-03-21T10:23:04.254Z,100576.06
2023-03-21T10:26:01.355Z,100571.38
2023-03-21T10:28:51.970Z,100578.56
2023-03-21T10:31:26.428Z,100575.47
2023-03-21T10:34:02.533Z,100579.50
2023-03-21T10:36:33.762Z,100581.06
2023-03-21T10:39:33.313Z,100573.84
2023-03-21T10:42:06.563Z,100568.28
2023-03-21T10:44:36.153Z,100571.38
2023-03-21T10:47:10.030Z,100564.16
2023-03-21T10:50:05.826Z,100560.38
2023-03-21T10:52:50.772Z,100559.09
2023-03-21T10:55:33.752Z,100549.22
2023-03-21T10:58:18.950Z,100544.91
2023-03-21T11:00:48.003Z,100545.84
2023-03-21T11:03:32.770Z,100541.06
2023-03-21T11:06:27.655Z,100546.31
2023-03-21T11:09:04.586Z,100540.31
2023-03-21T11:12:05.779Z,100536.56
2023-03-21T11:14:48.408Z,100536.09
2023-03-21T11:17:17.916Z,100533.03
2023-03-21T11:20:05.612Z,100536.09
2023-03-21T11:22:46.547Z,100535.72
2023-03-21T11:25:36.542Z,100537.63
2023-03-21T11:28:15.954Z,100537.72
2023-03-21T11:31:01.387Z,100524.94
2023-03-21T11:33:46.402Z,100520.28
2023-03-21T11:36:19.342Z,100527.31
2023-03-21T11:38:58.652Z,100527.63
2023-03-21T11:41:34.955Z,100523.38
2023-03-21T11:44:04.885Z,100520.22
2023-03-21T11:46:45.677Z,100515.75
2023-03-21T11:49:12.428Z,100520.06
2023-03-21T11:52:30.572Z,100515.63
2023-03-21T11:55:51.597Z,100508.22
2023-03-21T11:58:56.253Z,100514.59
2023-03-21T12:01:57.315Z,100504.84
2023-03-21T12:04:51.611Z,100500.13
2023-03-21T12:08:05.016Z,100500.28
2023-03-21T12:11:04.869Z,100491.81
2023-03-21T12:14:09.312Z,100490.97
2023-03-21T12:17:41.039Z,100482.03
2023-03-21T12:20:42.080Z,100486.28
2023-03-21T12:23:46.755Z,100472.13
2023-03-21T12:26:28.235Z,100478.13
2023-03-21T12:29:50.937Z,100474.59
2023-03-21T12:32:58.298Z,100465.25
2023-03-21T12:35:50.158Z,100466.53
2023-03-21T12:38:44.140Z,100455.94
2023-03-21T12:41:28.739Z,100452.56
2023-03-21T12:44:14.715Z,100457.41
2023-03-21T12:47:22.401Z,100445.94
2023-03-21T12:50:15.382Z,100446.56
2023-03-21T12:52:54.213Z,100448.81
2023-03-21T12:55:32.459Z,100436.06
2023-03-21T12:58:21.876Z,100440.16
2023-03-21T13:00:58.352Z,100446.22
2023-03-21T13:03:43.830Z,100433.47
2023-03-21T13:06:18.356Z,100432.91
2023-03-21T13:09:37.641Z,100427.94
2023-03-21T13:12:49.434Z,100426.59
2023-03-21T13:15:53.816Z,100415.38
2023-03-21T13:18:59.581Z,100414.63
2023-03-21T13:22:08.849Z,100408.16
2023-03-21T13:24:50.720Z,100408.03
2023-03-21T13:27:35.394Z,100401.53
2023-03-21T13:30:14.542Z,100401.50
2023-03-21T13:32:50.732Z,100403.16
2023-03-21T13:35:41.739Z,100396.84
2023-03-21T13:38:29.651Z,100396.94
2023-03-21T13:41:09.437Z,100397.47
2023-03-21T13:43:53.345Z,100389.16
2023-03-21T13:46:28.214Z,100392.19
2023-03-21T13:49:27.363Z,100386.25
2023-03-21T13:51:58.851Z,100381.19
2023-03-21T13:54:53.725Z,100375.22
2023-03-21T13:57:31.120Z,100385.19
2023-03-21T14:00:30.862Z,100374.81
2023-03-21T14:03:18.555Z,100375.38
2023-03-21T14:05:51.971Z,100375.03
2023-03-21T14:08:48.912Z,100367.66
2023-03-21T14:11:34.863Z,100374.53
2023-03-21T14:14:29.910Z,100362.78
2023-03-21T14:16:56.669Z,100361.59
2023-03-21T14:19:32.800Z,100353.34
2023-03-21T14:21:59.490Z,100359.75
2023-03-21T14:24:34.400Z,100352.91
2023-03-21T14:27:11.849Z,100353.09
2023-03-21T14:29:40.272Z,100356.75
2023-03-21T14:32:25.392Z,100351.69
2023-03-21T14:34:55.547Z,100352.03
2023-03-21T14:37:54.515Z,100350.16
2023-03-21T14:40:27.341Z,100342.78
2023-03-21T14:43:14.979Z,100336.53
2023-03-21T14:45:52.839Z,100334.72
2023-03-21T14:48:35.231Z,100336.72
2023-03-21T14:51:12.248Z,100331.34
2023-03-21T14:53:45.270Z,100330.97
2023-03-21T14:56:25.610Z,100315.84
2023-03-21T14:58:53.959Z,100324.28
2023-03-21T15:01:35.038Z,100323.75
2023-03-21T15:15:20.907Z,100305.50
2023-03-21T15:17:49.778Z,100309.53
2023-03-21T15:20:17.051Z,100307.63
2023-03-21T15:22:57.688Z,100299.81
2023-03-21T15:25:35.691Z,100299.28
2023-03-21T15:28:04.872Z,100305.00
2023-03-21T15:30:34.403Z,100297.06
2023-03-21T15:33:21.006Z,100303.47
2023-03-21T15:35:56.542Z,100294.53
2023-03-21T15:38:45.695Z,100297.25
2023-03-21T15:41:21.460Z,100297.59
2023-03-21T15:44:10.197Z,100292.34
2023-03-21T15:46:51.190Z,100296.91
2023-03-21T15:49:33.557Z,100292.53
2023-03-21T15:52:19.709Z,100292.69
2023-03-21T15:54:59.342Z,100286.06
2023-03-21T15:57:33.996Z,100288.94
2023-03-21T16:00:18.311Z,100288.94
2023-03-21T16:02:46.206Z,100284.03
2023-03-21T16:05:30.538Z,100289.09
2023-03-21T16:08:28.031Z,100282.16
2023-03-21T16:11:05.602Z,100287.69
2023-03-21T16:13:32.328Z,100285.84
2023-03-21T16:16:02.057Z,100279.13
2023-03-21T16:18:33.373Z,100281.41
2023-03-21T16:21:00.099Z,100277.19
2023-03-21T16:23:26.942Z,100283.72
2023-03-21T16:25:57.780Z,100278.81
2023-03-21T16:28:24.567Z,100275.06
2023-03-21T16:30:52.713Z,100270.00
2023-03-21T16:33:19.431Z,100272.00
2023-03-21T16:35:46.856Z,100277.22
2023-03-21T16:38:19.411Z,100275.53
2023-03-21T16:40:54.553Z,100272.00
2023-03-21T16:43:21.247Z,100278.22
2023-03-21T16:45:48.139Z,100273.13
2023-03-21T16:48:17.426Z,100268.91
2023-03-21T16:50:51.128Z,100276.16
2023-03-21T16:53:21.065Z,100285.53
2023-03-21T16:55:48.118Z,100284.31
2023-03-21T16:58:16.619Z,100285.31
2023-03-21T17:00:43.546Z,100289.00
2023-03-21T17:03:19.872Z,100279.41
2023-03-21T17:05:46.668Z,100278.72
2023-03-21T17:08:19.998Z,100284.22
2023-03-21T17:10:50.247Z,100272.94
2023-03-21T17:13:17.026Z,100277.31
2023-03-21T17:15:46.359Z,100267.72
2023-03-21T17:18:13.301Z,100276.78
2023-03-21T17:20:41.874Z,100275.09
2023-03-21T17:23:11.996Z,100278.63
2023-03-21T17:25:39.085Z,100271.56
2023-03-21T17:28:05.948Z,100274.25
2023-03-21T17:30:41.891Z,100279.47
2023-03-21T17:33:11.517Z,100266.31
2023-03-21T17:35:57.036Z,100271.84
2023-03-21T17:38:23.865Z,100272.03
2023-03-21T17:40:52.657Z,100278.38
2023-03-21T17:43:21.550Z,100277.69
2023-03-21T17:45:48.282Z,100269.78
2023-03-21T18:15:30.472Z,100286.78
2023-03-21T18:45:22.929Z,100264.34
2023-03-21T19:20:43.548Z,100252.50
2023-03-21T19:31:21.097Z,100251.84
2023-03-21T19:33:48.644Z,100252.41
2023-03-21T20:53:07.500Z,100211.53
2023-03-21T20:58:37.094Z,100207.28
2023-03-21T21:58:23.042Z,100165.38
2023-03-21T22:00:50.151Z,100161.00
2023-03-21T22:03:22.402Z,100163.94
2023-03-21T22:44:17.083Z,100141.59
2023-03-21T22:57:30.485Z,100131.03
2023-03-21T23:16:11.052Z,100131.13
2023-03-21T23:18:38.544Z,100119.75
2023-03-21T23:59:12.104Z,100089.28
